• Join FlightAware (Why Join?)
  • Login
  • US Flag GB Flag 
06:39 EST


 

Airport Tracker/Info


-or-


 

Live Flight TrackerFlight Track Log ✈ AFL150 ✈ 08-Jun-2013 ✈ UUEE / SVO - MUHA / HAV

Flight Track Log - Related Links

Times and Time Zones

All times are in EDT time to prevent confusion due to time zone crossing. See the AFL150 flight status page for this flight to view local times or setup timezone preferences in your user account.

Time Position Orientation Groundspeed Altitude Reporting Facility
EDT Latitude Longitude Course Direction KTS MPH feet Rate Location/Type
09:02 55.9620 37.3550 254° West 183 211 1,900  Level FlightAware
09:03 55.9600 37.3380 258° West 185 213 2,300 1,620 Climbing FlightAware
09:03 55.9540 37.2930 257° West 205 236 3,000 1,200 Climbing FlightAware
09:03 55.9480 37.2570 253° West 227 261 3,300 900 Climbing FlightAware
09:04 55.9430 37.2080 260° West 257 296 3,700 1,680 Climbing FlightAware
09:04 55.9480 37.1560 280° West 265 305 4,700 2,580 Climbing FlightAware
09:05 55.9560 37.0940 283° West 266 306 6,100 2,580 Climbing FlightAware
09:05 55.9620 37.0380 281° West 271 312 7,100 2,460 Climbing FlightAware
09:06 55.9700 36.9720 282° West 271 312 8,400 2,580 Climbing FlightAware
09:06 55.9780 36.9100 283° West 272 313 9,700 1,860 Climbing FlightAware
09:07 55.9900 36.8130 283° West 303 349 10,600 1,800 Climbing FlightAware
09:08 56.0040 36.7010 283° West 312 359 12,300 2,220 Climbing FlightAware
09:08 56.0150 36.6140 283° West 321 369 13,600 2,220 Climbing FlightAware
09:09 56.0300 36.4830 282° West 326 375 15,500 2,160 Climbing FlightAware
09:10 56.0430 36.3770 282° West 327 376 16,900 1,920 Climbing FlightAware
09:10 56.0570 36.2600 282° West 336 387 18,300 1,860 Climbing FlightAware
09:11 56.0700 36.1500 282° West 340 391 19,600 1,740 Climbing FlightAware
09:12 56.0690 35.9940 269° West 348 400 21,100 1,620 Climbing FlightAware
09:13 56.0570 35.8790 259° West 352 405 22,200 1,500 Climbing FlightAware
09:13 56.0450 35.7500 261° West 358 412 23,300 1,080 Climbing FlightAware
09:14 56.0540 35.6300 278° West 379 436 23,800 660 Climbing FlightAware
09:15 56.0680 35.5040 281° West 397 457 24,200 660 Climbing FlightAware
09:15 56.0840 35.3730 282° West 414 476 24,700 660 Climbing FlightAware
09:16 56.1010 35.2320 282° West 430 495 25,200 900 Climbing FlightAware
09:17 56.1170 35.0960 282° West 431 496 26,100 1,320 Climbing FlightAware
09:18 56.1380 34.9200 282° West 436 502 27,100 1,200 Climbing FlightAware
09:18 56.1540 34.7790 282° West 440 506 27,800 960 Climbing FlightAware
09:19 56.1730 34.6200 282° West 446 513 28,500 840 Climbing FlightAware
09:20 56.1900 34.4720 282° West 452 520 29,000 900 Climbing FlightAware
09:20 56.2050 34.3320 281° West 452 520 29,700 1,080 Climbing FlightAware
09:21 56.2240 34.1630 281° West 449 517 30,600 1,200 Climbing FlightAware
09:22 56.2420 34.0020 281° West 446 513 31,500 1,020 Climbing FlightAware
09:23 56.2580 33.8530 281° West 447 514 32,100 900 Climbing FlightAware
09:23 56.2740 33.7060 281° West 447 514 32,700 900 Climbing FlightAware
09:24 56.2910 33.5440 281° West 445 512 33,400 900 Climbing FlightAware
09:25 56.3060 33.4010 281° West 444 511 34,000 900 Climbing FlightAware
09:25 56.3240 33.2340 281° West 441 507 34,700 660 Climbing FlightAware
09:26 56.3380 33.0970 281° West 443 510 35,000 600 Climbing FlightAware
09:27 56.3510 32.9660 280° West 442 509 35,500 600 Climbing FlightAware
09:27 56.3690 32.7830 280° West 444 511 35,900 300 Climbing FlightAware
09:28 56.3830 32.6380 280° West 450 518 36,000 60 Climbing FlightAware
09:29 56.3980 32.4820 280° West 452 520 36,000  Level FlightAware
09:30 56.4140 32.3210 280° West 448 516 36,000  Level FlightAware
09:30 56.4270 32.1780 279° West 446 513 36,000  Level FlightAware
09:31 56.4410 32.0300 280° West 445 512 36,000  Level FlightAware
09:32 56.4590 31.8330 279° West 443 510 36,000  Level FlightAware
09:33 56.4720 31.6850 279° West 441 507 36,000  Level FlightAware
09:33 56.4830 31.5670 280° West 441 507 36,000  Level FlightAware
09:34 56.4950 31.4240 279° West 441 507 36,000  Level FlightAware
09:35 56.5050 31.3120 279° West 441 507 36,000  Level FlightAware
09:35 56.5170 31.1700 279° West 441 507 36,000  Level FlightAware
09:36 56.5300 31.0270 279° West 441 507 36,000  Level FlightAware
09:37 56.5400 30.9060 279° West 441 507 36,000  Level FlightAware
09:37 56.5500 30.7910 279° West 441 507 36,000  Level FlightAware
09:38 56.5630 30.6420 279° West 441 507 36,000  Level FlightAware
09:39 56.5730 30.5300 279° West 441 507 36,000  Level FlightAware
09:40 56.5870 30.3740 279° West 441 507 36,000  Level FlightAware
09:40 56.5970 30.2530 279° West 441 507 36,000  Level FlightAware
09:41 56.6070 30.1380 279° West 441 507 36,000  Level FlightAware
09:42 56.6210 29.9850 280° West 441 507 36,000  Level FlightAware
09:44 56.7407 29.6174 301° West  Level Estimated
09:45 56.8062 29.4141 301° West  Level Estimated
09:46 56.8713 29.2100 300° West  Level Estimated
09:47 56.9360 29.0053 300° West  Level Estimated
09:47 56.7110 28.5660 300° West 443 510 36,000  Level FlightAware
09:48 56.7240 28.3610 277° West 441 507 36,000  Level FlightAware
09:48 56.7340 28.2070 277° West 439 505 36,000  Level FlightAware
09:49 56.7440 28.0340 276° West 437 503 36,000  Level FlightAware
09:50 56.7510 27.9160 276° West 438 504 36,000  Level FlightAware
09:50 56.7610 27.7260 276° West 438 504 36,000  Level FlightAware
09:51 56.7690 27.5790 276° West 438 504 36,000  Level FlightAware
09:52 56.7760 27.4290 275° West 438 504 36,000  Level FlightAware
09:52 56.7840 27.2640 275° West 439 505 36,000  Level FlightAware
09:53 56.7910 27.1170 275° West 439 505 36,000  Level FlightAware
09:54 56.7990 26.9510 275° West 438 504 36,000  Level FlightAware
09:55 56.8050 26.8100 275° West 437 503 36,000  Level FlightAware
09:55 56.8110 26.6710 275° West 435 501 36,000  Level FlightAware
09:56 56.8180 26.4950 274° West 433 498 36,000  Level FlightAware
09:57 56.8230 26.3710 274° West 432 497 36,000  Level FlightAware
09:57 56.8300 26.2040 274° West 432 497 36,000  Level FlightAware
09:58 56.8360 26.0590 274° West 432 497 36,000  Level FlightAware
09:59 56.8410 25.9150 274° West 432 497 36,000  Level FlightAware
09:59 56.8480 25.7330 274° West 432 497 36,000  Level FlightAware
10:00 56.8520 25.5930 273° West 432 497 36,000  Level FlightAware
10:01 56.8560 25.4990 274° West 434 499 36,000  Level FlightAware
10:01 56.8640 25.3350 275° West 433 498 36,000  Level FlightAware
10:02 56.8700 25.2020 275° West 434 499 36,000  Level FlightAware
10:03 56.8780 25.0450 275° West 434 499 36,000  Level FlightAware
10:03 56.8840 24.8990 274° West 433 498 36,000  Level FlightAware
10:04 56.8920 24.7140 275° West 433 498 36,000  Level FlightAware
10:05 56.8980 24.5750 275° West 435 501 36,000  Level FlightAware
10:05 56.9040 24.4230 274° West 433 498 36,000  Level FlightAware
10:06 56.9100 24.2590 274° West 433 498 36,000  Level FlightAware
10:07 56.9150 24.1230 274° West 432 497 36,000  Level FlightAware
10:08 56.9160 23.9680 271° West 432 497 36,000  Level FlightAware
10:08 56.9010 23.8120 260° West 433 498 36,000  Level FlightAware
10:09 56.8820 23.6650 257° West 432 497 36,000  Level FlightAware
10:10 56.8630 23.5160 257° West 431 496 36,000  Level FlightAware
10:10 56.8430 23.3660 256° West 432 497 36,000  Level FlightAware
10:11 56.8270 23.2460 256° West 431 496 36,000  Level FlightAware
10:12 56.7920 22.9800 257° West 433 498 36,000  Level FlightAware
10:13 56.7720 22.8400 255° West 431 496 36,000  Level FlightAware
10:14 56.7510 22.6860 256° West 433 498 36,000  Level FlightAware
10:14 56.7310 22.5430 256° West 432 497 36,000  Level FlightAware
10:15 56.7120 22.4040 256° West 431 496 36,000  Level FlightAware
10:16 56.6880 22.2410 255° West 432 497 36,000  Level FlightAware
10:16 56.6680 22.1040 255° West 431 496 36,000  Level FlightAware
10:17 56.6450 21.9520 255° West 430 495 36,000  Level FlightAware
10:18 56.6240 21.8100 255° West 430 495 36,000  Level FlightAware
10:18 56.6040 21.6740 255° West 430 495 36,000  Level FlightAware
10:19 56.5790 21.5140 254° West 430 495 36,000  Level FlightAware
10:20 56.5570 21.3670 255° West 430 495 36,000  Level FlightAware
10:20 56.5370 21.2410 254° West 430 495 36,000  Level FlightAware
10:21 56.5130 21.0820 255° West 431 496 36,000  Level FlightAware
10:22 56.4980 20.9060 261° West 433 498 36,000  Level FlightAware
10:23 56.4810 20.7220 261° West 431 496 36,000  Level FlightAware
10:24 56.4710 20.5990 262° West 431 496 36,000  Level FlightAware
10:24 56.4530 20.4080 260° West 430 495 36,000  Level FlightAware
10:25 56.4380 20.2420 261° West 429 494 36,000  Level FlightAware
10:26 56.4230 20.0830 260° West 429 494 36,000  Level FlightAware
10:26 56.4100 19.9590 259° West 428 493 36,000  Level FlightAware
10:27 56.3930 19.7940 260° West 427 491 36,000  Level FlightAware
10:28 56.3770 19.6370 260° West 425 489 36,000  Level FlightAware
10:29 56.3630 19.5020 259° West 424 488 36,000  Level FlightAware
10:29 56.3480 19.3630 259° West 424 488 36,000  Level FlightAware
10:30 56.3330 19.2240 259° West 425 489 36,000  Level FlightAware
10:31 56.3150 19.0560 259° West 427 491 36,000  Level FlightAware
10:31 56.3000 18.9180 259° West 429 494 36,000  Level FlightAware
10:32 56.2860 18.7870 259° West 429 494 36,000  Level FlightAware
10:33 56.2670 18.6220 258° West 430 495 36,000  Level FlightAware
10:34 56.2520 18.4830 259° West 432 497 36,000  Level FlightAware
10:34 56.2360 18.3390 259° West 432 497 36,000  Level FlightAware
10:35 56.2390 18.1920 272° West 435 501 36,000  Level FlightAware
10:36 56.2440 18.0460 274° West 437 503 36,000  Level FlightAware
10:36 56.2500 17.8870 274° West 437 503 36,000  Level FlightAware
10:37 56.2550 17.7270 273° West 435 501 36,000  Level FlightAware
10:38 56.2610 17.5720 274° West 434 499 36,000  Level FlightAware
10:38 56.2650 17.4280 273° West 434 499 36,000  Level FlightAware
10:39 56.2700 17.2690 273° West 434 499 36,000  Level FlightAware
10:40 56.2750 17.1180 273° West 434 499 36,000  Level FlightAware
10:41 56.2800 16.9580 273° West 434 499 36,000  Level FlightAware
10:41 56.2840 16.8150 273° West 435 501 36,000  Level FlightAware
10:42 56.2880 16.6620 273° West 437 503 36,000  Level FlightAware
10:43 56.2910 16.5260 272° West 437 503 36,000  Level FlightAware
10:43 56.2950 16.3680 273° West 437 503 36,000  Level FlightAware
10:44 56.2980 16.2320 272° West 437 503 36,000  Level FlightAware
10:45 56.3010 16.0550 272° West 438 504 36,000  Level FlightAware
10:45 56.3040 15.9150 272° West 438 504 36,000  Level FlightAware
10:46 56.3070 15.7520 272° West 440 506 36,000  Level FlightAware
10:47 56.3100 15.6040 272° West 441 507 36,000  Level FlightAware
10:48 56.3120 15.4650 272° West 439 505 36,000  Level FlightAware
10:48 56.3140 15.2950 271° West 439 505 36,000  Level FlightAware
10:49 56.3160 15.1470 271° West 440 506 36,000  Level FlightAware
10:50 56.3180 14.9870 271° West 442 509 36,000  Level FlightAware
10:50 56.3200 14.8280 271° West 442 509 36,000  Level FlightAware
10:51 56.3220 14.6990 272° West 443 510 36,000  Level FlightAware
10:52 56.3230 14.5190 271° West 443 510 36,000  Level FlightAware
10:52 56.3240 14.3730 271° West 442 509 36,000  Level FlightAware
10:53 56.3250 14.2200 271° West 442 509 36,000  Level FlightAware
10:54 56.3260 14.0590 271° West 441 507 36,000  Level FlightAware
10:55 56.3260 13.9040 270° West 441 507 36,000  Level FlightAware
10:55 56.3260 13.8100 270° West 440 506 36,000  Level FlightAware
10:56 56.3270 13.6500 271° West 440 506 36,000  Level FlightAware
10:56 56.3270 13.5110 270° West 441 507 36,000  Level FlightAware
10:57 56.3270 13.3660 270° West 441 507 36,000  Level FlightAware
10:58 56.3260 13.1930 269° West 442 509 36,000  Level FlightAware
10:59 56.3260 13.0380 270° West 442 509 36,000  Level FlightAware
10:59 56.3250 12.8920 269° West 442 509 36,000  Level FlightAware
11:00 56.3240 12.7320 269° West 443 510 36,000  Level FlightAware
11:01 56.3230 12.5790 269° West 444 511 36,000  Level FlightAware
11:01 56.3220 12.4370 269° West 446 513 36,000  Level FlightAware
11:02 56.3200 12.2580 269° West 447 514 36,000  Level FlightAware
11:03 56.3180 12.1170 269° West 447 514 36,000  Level FlightAware
11:04 56.3200 11.9020 271° West 447 514 36,000  Level FlightAware
11:04 56.3260 11.7350 274° West 446 513 36,000  Level FlightAware
11:05 56.3310 11.5860 274° West 448 516 36,000  Level FlightAware
11:06 56.3350 11.4290 273° West 448 516 36,000  Level FlightAware
11:07 56.3380 11.2710 272° West 448 516 36,000  Level FlightAware
11:07 56.3420 11.1170 273° West 447 514 36,000  Level FlightAware
11:08 56.3450 10.9520 272° West 448 516 36,000  Level FlightAware
11:09 56.3480 10.8180 272° West 448 516 36,000  Level FlightAware
11:09 56.3450 10.6580 268° West 448 516 36,000  Level FlightAware
11:10 56.3390 10.4930 266° West 448 516 36,000  Level FlightAware
11:11 56.3410 10.2840 271° West 450 518 36,000  Level FlightAware
11:12 56.3580 10.0690 278° West 449 517 36,000  Level FlightAware
11:13 56.3620 9.9200 273° West 448 516 36,000  Level FlightAware
11:13 56.3630 9.7850 271° West 448 516 36,000  Level FlightAware
11:14 56.3650 9.5990 271° West 450 518 36,000  Level FlightAware
11:15 56.3660 9.4450 271° West 450 518 36,000  Level FlightAware
11:15 56.3670 9.2880 271° West 451 519 36,000  Level FlightAware
11:16 56.3680 9.1330 271° West 451 519 36,000  Level FlightAware
11:17 56.3690 8.9730 271° West 448 516 36,000  Level FlightAware
11:18 56.3700 8.8100 271° West 439 505 36,000  Level FlightAware
11:18 56.3700 8.6670 270° West 437 503 36,000  Level FlightAware
11:19 56.3700 8.5200 270° West 437 503 36,000  Level FlightAware
11:20 56.3700 8.3210 270° West 441 507 36,000  Level FlightAware
11:21 56.3700 8.1560 270° West 444 511 36,000  Level FlightAware
11:21 56.3690 8.0110 269° West 448 516 36,000  Level FlightAware
11:22 56.3690 7.8410 270° West 453 521 36,000  Level FlightAware
11:23 56.3680 7.6910 269° West 456 525 36,000  Level FlightAware
11:23 56.3670 7.5390 269° West 458 527 36,000  Level FlightAware
11:24 56.3650 7.3620 269° West 456 525 36,000  Level FlightAware
11:25 56.3640 7.2090 269° West 456 525 36,000  Level FlightAware
11:25 56.3620 7.0630 269° West 453 521 36,000  Level FlightAware
11:26 56.3600 6.8880 269° West 453 521 36,000  Level FlightAware
11:27 56.3580 6.7260 269° West 447 514 36,000  Level FlightAware
11:27 56.3560 6.5930 269° West 442 509 36,000  Level FlightAware
11:28 56.3540 6.4280 269° West 441 507 36,000  Level FlightAware
11:29 56.3520 6.3460 268° West 442 509 36,000  Level FlightAware
11:29 56.3490 6.1600 268° West 448 516 36,000  Level FlightAware
11:30 56.3460 6.0270 268° West 453 521 36,000  Level FlightAware
11:31 56.3430 5.8450 268° West 451 519 36,000  Level FlightAware
11:31 56.3390 5.6950 267° West 452 520 36,000  Level FlightAware
11:32 56.3360 5.5290 268° West 454 522 36,000  Level FlightAware
11:33 56.3332 5.4514 268° West 1 1 36,000  Level FlightAware UK
11:33 56.3320 5.3780 268° West 455 524 36,000  Level FlightAware
11:33 56.3306 5.3150 268° West 1 1 36,000  Level FlightAware UK
11:34 56.3280 5.2340 268° West 456 525 36,000  Level FlightAware
11:34 56.3269 5.1552 268° West 1 1 36,000  Level FlightAware UK
11:34 56.3260 5.1450 268° West 457 526 36,000  Level FlightAware
11:35 56.3220 4.9735 268° West 1 1 36,000  Level FlightAware UK
11:35 56.3210 4.9490 268° West 457 526 36,000  Level FlightAware
11:35 56.3170 4.8160 267° West 456 525 36,000  Level FlightAware
11:36 56.3132 4.6780 267° West 466 536 36,000  Level FlightAware UK
11:36 56.3120 4.6680 267° West 455 524 36,000  Level FlightAware
11:37 56.3070 4.5050 267° West 453 521 36,000  Level FlightAware
11:37 56.3046 4.4075 267° West 464 534 36,000  Level FlightAware UK
11:38 56.3011 4.2942 267° West 464 534 36,000  Level FlightAware UK
11:38 56.3010 4.3200 267° West 453 521 36,000  Level FlightAware
11:38 56.2973 4.1815 267° West 464 534 36,000  Level FlightAware UK
11:38 56.2950 4.1340 267° West 452 520 36,000  Level FlightAware
11:39 56.2889 3.9582 267° West 462 532 36,000  Level FlightAware UK
11:39 56.2890 3.9800 267° West 451 519 36,000  Level FlightAware
11:40 56.2830 3.8050 267° West 453 521 36,000  Level FlightAware
11:41 56.2770 3.6490 266° West 454 522 36,000  Level FlightAware
11:41 56.2710 3.5030 266° West 455 524 36,000  Level FlightAware
11:42 56.2650 3.3380 266° West 456 525 36,000  Level FlightAware
11:43 56.2580 3.1870 265° West 457 526 36,000  Level FlightAware
11:43 56.2510 3.0320 265° West 457 526 36,000  Level FlightAware
11:43 56.2506 3.0119 265° West 466 536 36,000  Level FlightAware UK
11:44 56.2440 2.8690 266° West 457 526 36,000  Level FlightAware
11:44 56.2402 2.7860 266° West 462 532 36,000  Level FlightAware UK
11:45 56.2370 2.7250 266° West 457 526 36,000  Level FlightAware
11:45 56.2290 2.5500 265° West 458 527 36,000  Level FlightAware
11:46 56.2204 2.3752 265° West 466 536 36,000  Level FlightAware UK
11:46 56.2220 2.3910 265° West 459 528 36,000  Level FlightAware
11:47 56.2137 2.2395 265° West 466 536 36,000  Level FlightAware UK
11:47 56.2140 2.2380 265° West 459 528 36,000  Level FlightAware
11:47 56.2080 2.1260 265° West 466 536 36,000  Level FlightAware UK
11:47 56.2060 2.0870 265° West 459 528 36,000  Level FlightAware
11:48 56.2010 1.9900 265° West 466 536 36,000  Level FlightAware UK
11:48 56.1970 1.9220 265° West 459 528 36,000  Level FlightAware
11:49 56.1900 1.7720 265° West 458 527 36,000  Level FlightAware
11:49 56.1876 1.7413 265° West 466 536 36,000  Level FlightAware UK
11:50 56.1802 1.6061 265° West 464 534 36,000  Level FlightAware UK
11:50 56.1810 1.6180 265° West 457 526 36,000  Level FlightAware
11:50 56.1738 1.4929 265° West 468 539 36,000  Level FlightAware UK
11:50 56.1720 1.4510 265° West 457 526 36,000  Level FlightAware
11:51 56.1620 1.2760 264° West 458 527 36,000  Level FlightAware
11:52 56.1516 1.1092 264° West 468 539 36,000  Level FlightAware UK
11:52 56.1520 1.1090 264° West 458 527 36,000  Level FlightAware
11:52 56.1421 0.9518 264° West 464 534 36,000  Level FlightAware UK
11:53 56.1410 0.9390 264° West 458 527 36,000  Level FlightAware
11:53 56.1325 0.7937 264° West 466 536 36,000  Level FlightAware UK
11:53 56.1330 0.8080 264° West 458 527 36,000  Level FlightAware
11:54 56.1238 0.6581 264° West 468 539 36,000  Level FlightAware UK
11:54 56.1230 0.6360 264° West 459 528 36,000  Level FlightAware
11:54 56.1138 0.5008 264° West 466 536 36,000  Level FlightAware UK
11:55 56.1130 0.4910 264° West 457 526 36,000  Level FlightAware
11:55 56.1020 0.3190 264° West 457 526 36,000  Level FlightAware
11:56 56.0930 0.1868 264° West 462 532 36,000  Level FlightAware UK
11:56 56.0900 0.1480 264° West 458 527 36,000  Level FlightAware
11:56 56.0854 0.0744 264° West 462 532 36,000  Level FlightAware UK
11:57 56.0800 -0.0030 264° West 458 527 36,000  Level FlightAware
11:57 56.0700 -0.1530 263° West 460 529 36,000  Level FlightAware
11:58 56.0587 -0.3086 263° West 464 534 36,000  Level FlightAware UK
11:58 56.0590 -0.3040 263° West 461 531 36,000  Level FlightAware
11:59 56.0480 -0.4550 263° West 464 534 36,000  Level FlightAware
11:59 56.0405 -0.5583 263° West 466 536 36,000  Level FlightAware UK
11:59 56.0350 -0.6260 263° West 464 534 36,000  Level FlightAware
12:00 56.0287 -0.7174 263° West 466 536 36,000  Level FlightAware UK
12:00 56.0240 -0.7770 263° West 465 535 36,000  Level FlightAware
12:01 56.0115 -0.9437 263° West 464 534 36,000  Level FlightAware UK
12:01 56.0110 -0.9500 263° West 465 535 36,000  Level FlightAware
12:01 55.9992 -1.1029 263° West 464 534 36,000  Level FlightAware UK
12:02 55.9980 -1.1200 263° West 465 535 36,000  Level FlightAware
12:02 55.9902 -1.2167 263° West 464 534 36,000  Level FlightAware UK
12:02 55.9860 -1.2680 263° West 466 536 36,000  Level FlightAware
12:03 55.9720 -1.4430 262° West 467 537 36,000  Level FlightAware
12:04 55.9600 -1.5950 262° West 467 537 36,000  Level FlightAware
12:04 55.9591 -1.6041 262° West 464 534 36,000  Level FlightAware UK
12:04 55.9470 -1.7450 261° West 467 537 36,000  Level FlightAware
12:05 55.9380 -1.8543 261° West 464 534 36,000  Level FlightAware UK
12:05 55.9340 -1.8980 261° West 468 539 36,000  Level FlightAware
12:05 55.9285 -1.9683 261° West 462 532 36,000  Level FlightAware UK
12:06 55.9200 -2.0660 261° West 468 539 36,000  Level FlightAware
12:06 55.9054 -2.2415 261° West 464 534 36,000  Level FlightAware UK
12:07 55.9050 -2.2410 261° West 469 540 36,000  Level FlightAware
12:07 55.8935 -2.3785 261° West 464 534 36,000  Level FlightAware UK
12:07 55.8920 -2.3920 261° West 468 539 36,000  Level FlightAware
12:08 55.8813 -2.5158 261° West 464 534 36,000  Level FlightAware UK
12:08 55.8790 -2.5450 261° West 469 540 36,000  Level FlightAware
12:08 55.8693 -2.6524 261° West 464 534 36,000  Level FlightAware UK
12:09 55.8640 -2.7170 261° West 470 541 36,000  Level FlightAware
12:09 55.8571 -2.7893 261° West 464 534 36,000  Level FlightAware UK
12:09 55.8500 -2.8710 261° West 470 541 36,000  Level FlightAware
12:10 55.8360 -3.0184 261° West 464 534 36,000  Level FlightAware UK
12:10 55.8360 -3.0230 261° West 470 541 36,000  Level FlightAware
12:10 55.8233 -3.1548 261° West 462 532 36,000  Level FlightAware UK
12:11 55.8127 -3.2689 261° West 464 534 36,000  Level FlightAware UK
12:11 55.8140 -3.2520 261° West 470 541 36,000  Level FlightAware
12:12 55.7980 -3.4240 261° West 471 542 36,000  Level FlightAware
12:12 55.7863 -3.5182 261° West 462 532 36,000  Level FlightAware UK
12:12 55.7740 -3.5880 261° West 473 544 36,000  Level FlightAware
12:13 55.7440 -3.7560 252° West 475 547 36,000  Level FlightAware
12:14 55.7170 -3.9070 252° West 474 545 36,000  Level FlightAware
12:14 55.7030 -3.9850 252° West 474 545 36,000  Level FlightAware
12:14 55.6948 -4.0286 252° West 460 529 36,000  Level FlightAware UK
12:15 55.6660 -4.1260 245° Southwest 484 557 36,000  Level FlightAware
12:16 55.6080 -4.2420 229° Southwest 489 563 36,000  Level FlightAware
12:16 55.5520 -4.3510 228° Southwest 489 563 36,000  Level FlightAware
12:17 55.5105 -4.4340 228° Southwest 462 532 36,000  Level FlightAware UK
12:17 55.4810 -4.4910 228° Southwest 486 559 36,000  Level FlightAware
12:18 55.4102 -4.6303 228° Southwest 460 529 36,000  Level FlightAware UK
12:18 55.3970 -4.6560 228° Southwest 487 560 36,000  Level FlightAware
12:18 55.3370 -4.7724 228° Southwest 462 532 36,000  Level FlightAware UK
12:19 55.3200 -4.8050 228° Southwest 488 562 36,000  Level FlightAware
12:19 55.2911 -4.8611 228° Southwest 462 532 36,000  Level FlightAware UK
12:19 55.2520 -4.9370 228° Southwest 489 563 36,000  Level FlightAware
12:20 55.1994 -5.0379 228° Southwest 462 532 36,000  Level FlightAware UK
12:20 55.1840 -5.0680 228° Southwest 488 562 36,000  Level FlightAware
12:20 55.1533 -5.1259 228° Southwest 460 529 36,000  Level FlightAware UK
12:21 55.1210 -5.1870 228° Southwest 488 562 36,000  Level FlightAware
12:22 55.0580 -5.3070 228° Southwest 488 562 36,000  Level FlightAware
12:22 55.0243 -5.3717 228° Southwest 458 527 36,000  Level FlightAware UK
12:22 54.9970 -5.4240 228° Southwest 495 570 36,000  Level FlightAware
12:23 54.9316 -5.5472 228° Southwest 460 529 36,000  Level FlightAware UK
12:23 54.9190 -5.5700 228° Southwest 496 571 36,000  Level FlightAware
12:23 54.8850 -5.6347 228° Southwest 462 532 36,000  Level FlightAware UK
12:24 54.8560 -5.6890 228° Southwest 497 572 36,000  Level FlightAware
12:24 54.7914 -5.8099 228° Southwest 462 532 36,000  Level FlightAware UK
12:24 54.7930 -5.8070 228° Southwest 496 571 36,000  Level FlightAware
12:25 54.7445 -5.8971 228° Southwest 462 532 36,000  Level FlightAware UK
12:25 54.7310 -5.9220 228° Southwest 497 572 36,000  Level FlightAware
12:25 54.6980 -5.9843 228° Southwest 464 534 36,000  Level FlightAware UK
12:26 54.6680 -6.0390 228° Southwest 495 570 36,000  Level FlightAware
12:26 54.6416 -6.0878 228° Southwest 464 534 36,000  Level FlightAware UK
12:26 54.5970 -6.1700 228° Southwest 494 568 36,000  Level FlightAware
12:27 54.5574 -6.2413 228° Southwest 462 532 36,000  Level FlightAware UK
12:27 54.5330 -6.2860 228° Southwest 493 567 36,000  Level FlightAware
12:28 54.4640 -6.4130 228° Southwest 462 532 36,000  Level FlightAware UK
12:28 54.4640 -6.4130 228° Southwest 491 565 36,000  Level FlightAware
12:28 54.4173 -6.4975 228° Southwest 462 532 36,000  Level FlightAware UK
12:29 54.4030 -6.5230 228° Southwest 490 564 36,000  Level FlightAware
12:29 54.3706 -6.5817 228° Southwest 460 529 36,000  Level FlightAware UK
12:29 54.3320 -6.6520 228° Southwest 489 563 36,000  Level FlightAware
12:30 54.2771 -6.7494 228° Southwest 460 529 36,000  Level FlightAware UK
12:30 54.2690 -6.7640 228° Southwest 488 562 36,000  Level FlightAware
12:30 54.2306 -6.8331 228° Southwest 460 529 36,000  Level FlightAware UK
12:31 54.2060 -6.8810 228° Southwest 483 556 36,000  Level FlightAware
12:31 54.1540 -7.0070 228° Southwest 483 556 36,000  Level FlightAware
12:31 54.1499 -7.0170 228° Southwest 460 529 36,000  Level FlightAware UK
12:32 54.1173 -7.1175 228° Southwest 460 529 36,000  Level FlightAware UK
12:32 54.1040 -7.1600 228° Southwest 484 557 36,000  Level FlightAware
12:32 54.0847 -7.2181 228° Southwest 460 529 36,000  Level FlightAware UK
12:33 54.0600 -7.2920 228° Southwest 488 562 36,000  Level FlightAware
12:33 54.0130 -7.4280 228° Southwest 489 563 36,000  Level FlightAware
12:33 54.0110 -7.4371 228° Southwest 460 529 36,000  Level FlightAware UK
12:34 53.9769 -7.5363 228° Southwest 460 529 36,000  Level FlightAware UK
12:34 53.9680 -7.5620 228° Southwest 489 563 36,000  Level FlightAware
12:34 53.9428 -7.6356 228° Southwest 460 529 36,000  Level FlightAware UK
12:35 53.9160 -7.7120 228° Southwest 485 558 36,000  Level FlightAware
12:35 53.8743 -7.8340 228° Southwest 462 532 36,000  Level FlightAware UK
12:36 53.8650 -7.8590 228° Southwest 486 559 36,000  Level FlightAware
12:36 53.8401 -7.9332 228° Southwest 462 532 36,000  Level FlightAware UK
12:36 53.8200 -7.9890 228° Southwest 486 559 36,000  Level FlightAware
12:37 53.7780 -8.1100 228° Southwest 485 558 36,000  Level FlightAware
12:37 53.7710 -8.1305 228° Southwest 462 532 36,000  Level FlightAware UK
12:37 53.7364 -8.2287 228° Southwest 462 532 36,000  Level FlightAware UK
12:38 53.7250 -8.2590 228° Southwest 484 557 36,000  Level FlightAware
12:38 53.7018 -8.3269 228° Southwest 460 529 36,000  Level FlightAware UK
12:38 53.6810 -8.3860 228° Southwest 485 558 36,000  Level FlightAware
12:39 53.6258 -8.5412 228° Southwest 460 529 36,000  Level FlightAware UK
12:39 53.6230 -8.5490 228° Southwest 489 563 36,000  Level FlightAware
12:40 53.5909 -8.6385 228° Southwest 462 532 36,000  Level FlightAware UK
12:40 53.5630 -8.7160 228° Southwest 487 560 36,000  Level FlightAware
12:41 53.5212 -8.8326 228° Southwest 460 529 36,000  Level FlightAware UK
12:41 53.5140 -8.8520 228° Southwest 483 556 36,000  Level FlightAware
12:41 53.4863 -8.9292 228° Southwest 460 529 36,000  Level FlightAware UK
12:41 53.4670 -8.9810 228° Southwest 482 555 36,000  Level FlightAware
12:42 53.4220 -9.1060 239° Southwest 482 555 36,000  Level FlightAware
12:43 53.3710 -9.2450 238° Southwest 487 560 36,000  Level FlightAware
12:44 53.3110 -9.4070 238° Southwest 487 560 36,000  Level FlightAware
12:44 53.2540 -9.5610 238° Southwest 485 558 36,000  Level FlightAware
12:45 53.2070 -9.6860 238° Southwest 484 557 36,000  Level FlightAware
12:46 53.1530 -9.8300 238° Southwest 468 539 36,000  Level FlightAware
12:47 53.1020 -9.9680 238° Southwest 465 535 36,000  Level FlightAware
12:47 53.0570 -10.0860 238° Southwest 464 534 36,000  Level FlightAware
12:48 53.0100 -10.2100 238° Southwest 464 534 36,000  Level FlightAware
12:49 52.9620 -10.3350 238° Southwest 463 533 36,000  Level FlightAware
12:49 52.9110 -10.4670 237° Southwest 464 534 36,000  Level FlightAware
12:50 52.8580 -10.6040 237° Southwest 464 534 36,000  Level FlightAware
12:51 52.8130 -10.7210 238° Southwest 465 535 36,000  Level FlightAware
12:51 52.7580 -10.8620 237° Southwest 465 535 36,000  Level FlightAware
12:52 52.7150 -10.9720 237° Southwest 468 539 36,000  Level FlightAware
12:53 52.6620 -11.1050 237° Southwest 461 531 36,000  Level FlightAware
12:54 52.6100 -11.2360 237° Southwest 460 529 36,000  Level FlightAware
12:54 52.5450 -11.4010 237° Southwest 458 527 36,000  Level FlightAware
12:55 52.5040 -11.5020 236° Southwest 469 540 36,000  Level FlightAware
12:56 52.4610 -11.6100 237° Southwest 471 542 36,000  Level FlightAware
12:57 52.3900 -11.7850 236° Southwest 464 534 36,000  Level FlightAware
12:57 52.3380 -11.9140 237° Southwest 462 532 36,000  Level FlightAware
12:58 52.2890 -12.0320 236° Southwest 461 531 36,000  Level FlightAware
12:59 52.2160 -12.2110 236° Southwest 458 527 36,000  Level FlightAware
13:00 52.1550 -12.3570 236° Southwest 458 527 36,000  Level FlightAware
13:01 52.0850 -12.5260 236° Southwest 459 528 36,000  Level FlightAware
13:02 52.0340 -12.6450 235° Southwest 459 528 36,000  Level FlightAware
13:02 51.9990 -12.7270 235° Southwest 459 528 36,000  Level FlightAware
13:03 51.9500 -12.8400 235° Southwest 459 528 36,000  Level FlightAware
13:04 51.9130 -12.9260 235° Southwest 459 528 36,000  Level FlightAware
13:05 51.8640 -13.0410 235° Southwest 459 528 36,000  Level FlightAware
13:05 51.8260 -13.1270 234° Southwest 459 528 36,000  Level FlightAware
13:06 51.7740 -13.2470 235° Southwest 459 528 36,000  Level FlightAware
13:07 51.7380 -13.3300 235° Southwest 459 528 36,000  Level FlightAware
13:07 51.6880 -13.4450 235° Southwest 459 528 36,000  Level FlightAware
13:08 51.6510 -13.5310 235° Southwest 459 528 36,000  Level FlightAware
13:09 51.6000 -13.6470 235° Southwest 459 528 36,000  Level FlightAware
13:09 51.5630 -13.7330 235° Southwest 459 528 36,000  Level FlightAware
13:10 51.5220 -13.8280 235° Southwest 459 528 36,000  Level FlightAware
13:11 51.4610 -13.9680 235° Southwest 459 528 36,000  Level FlightAware
13:14 51.4518 -14.4897 269° West  Level Estimated
13:15 51.4475 -14.6969 268° West  Level Estimated
13:16 51.4428 -14.9041 268° West  Level Estimated
13:17 51.4378 -15.1112 268° West  Level Estimated
13:18 51.4324 -15.3183 268° West  Level Estimated
13:19 51.4266 -15.5254 268° West  Level Estimated
13:20 51.4204 -15.7324 267° West  Level Estimated
13:21 51.4140 -15.9393 267° West  Level Estimated
13:22 51.4071 -16.1462 267° West  Level Estimated
13:23 51.3999 -16.3530 267° West  Level Estimated
13:24 51.3923 -16.5597 267° West  Level Estimated
13:25 51.3843 -16.7664 267° West  Level Estimated
13:26 51.3760 -16.9730 266° West  Level Estimated
13:27 51.3673 -17.1795 266° West  Level Estimated
13:28 51.3583 -17.3859 266° West  Level Estimated
13:29 51.3489 -17.5923 266° West  Level Estimated
13:30 51.3391 -17.7986 266° West  Level Estimated
13:31 51.3290 -18.0047 266° West  Level Estimated
13:32 51.3185 -18.2108 265° West  Level Estimated
13:33 51.3076 -18.4168 265° West  Level Estimated
13:34 51.2964 -18.6227 265° West  Level Estimated
13:35 51.2848 -18.8285 265° West  Level Estimated
13:36 51.2729 -19.0342 265° West  Level Estimated
13:37 51.2606 -19.2398 265° West  Level Estimated
13:38 51.2479 -19.4452 264° West  Level Estimated
13:39 51.2349 -19.6506 264° West  Level Estimated
13:40 51.2215 -19.8558 264° West  Level Estimated
13:41 51.2078 -20.0609 264° West  Level Estimated
13:42 51.1937 -20.2659 264° West  Level Estimated
13:43 51.1793 -20.4708 264° West  Level Estimated
13:44 51.1645 -20.6755 263° West  Level Estimated
13:45 51.1493 -20.8801 263° West  Level Estimated
13:46 51.1338 -21.0846 263° West  Level Estimated
13:47 51.1179 -21.2889 263° West  Level Estimated
13:48 51.1017 -21.4931 263° West  Level Estimated
13:49 51.0851 -21.6971 263° West  Level Estimated
13:50 51.0681 -21.9010 263° West  Level Estimated
13:51 51.0508 -22.1048 262° West  Level Estimated
13:52 51.0332 -22.3083 262° West  Level Estimated
13:53 51.0152 -22.5118 262° West  Level Estimated
13:54 50.9968 -22.7150 262° West  Level Estimated
13:55 50.9781 -22.9182 262° West  Level Estimated
13:56 50.9590 -23.1211 262° West  Level Estimated
13:57 50.9396 -23.3239 261° West  Level Estimated
13:58 50.9198 -23.5265 261° West  Level Estimated
13:59 50.8997 -23.7289 261° West  Level Estimated
14:00 50.8793 -23.9312 261° West  Level Estimated
14:01 50.8585 -24.1332 261° West  Level Estimated
14:02 50.8373 -24.3351 261° West  Level Estimated
14:03 50.8158 -24.5368 260° West  Level Estimated
14:04 50.7939 -24.7383 260° West  Level Estimated
14:05 50.7717 -24.9397 260° West  Level Estimated
14:06 50.7492 -25.1408 260° West  Level Estimated
14:07 50.7263 -25.3417 260° West  Level Estimated
14:08 50.7030 -25.5425 260° West  Level Estimated
14:09 50.6794 -25.7430 260° West  Level Estimated
14:10 50.6555 -25.9434 259° West  Level Estimated
14:11 50.6312 -26.1435 259° West  Level Estimated
14:12 50.6066 -26.3435 259° West  Level Estimated
14:13 50.5816 -26.5432 259° West  Level Estimated
14:14 50.5564 -26.7427 259° West  Level Estimated
14:15 50.5307 -26.9420 259° West  Level Estimated
14:16 50.5047 -27.1411 258° West  Level Estimated
14:17 50.4784 -27.3399 258° West  Level Estimated
14:18 50.4518 -27.5385 258° West  Level Estimated
14:19 50.4248 -27.7369 258° West  Level Estimated
14:20 50.3974 -27.9351 258° West  Level Estimated
14:21 50.3698 -28.1331 258° West  Level Estimated
14:22 50.3418 -28.3308 258° West  Level Estimated
14:23 50.3134 -28.5282 257° West  Level Estimated
14:24 50.2848 -28.7255 257° West  Level Estimated
14:25 50.2557 -28.9225 257° West  Level Estimated
14:26 50.2264 -29.1192 257° West  Level Estimated
14:27 50.1967 -29.3158 257° West  Level Estimated
14:28 50.1667 -29.5120 257° West  Level Estimated
14:29 50.1364 -29.7081 256° West  Level Estimated
14:30 50.1057 -29.9039 256° West  Level Estimated
14:31 50.0747 -30.0994 256° West  Level Estimated
14:32 50.0434 -30.2946 256° West  Level Estimated
14:33 50.0118 -30.4897 256° West  Level Estimated
14:34 49.9798 -30.6844 256° West  Level Estimated
14:35 49.9475 -30.8789 256° West  Level Estimated
14:36 49.9149 -31.0732 255° West  Level Estimated
14:37 49.8820 -31.2671 255° West  Level Estimated
14:38 49.8487 -31.4608 255° West  Level Estimated
14:39 49.8151 -31.6543 255° West  Level Estimated
14:40 49.7812 -31.8475 255° West  Level Estimated
14:41 49.7469 -32.0404 255° West  Level Estimated
14:42 49.7124 -32.2330 255° West  Level Estimated
14:43 49.6775 -32.4253 254° West  Level Estimated
14:44 49.6423 -32.6174 254° West  Level Estimated
14:45 49.6068 -32.8092 254° West  Level Estimated
14:46 49.5710 -33.0007 254° West  Level Estimated
14:47 49.5349 -33.1919 254° West  Level Estimated
14:48 49.4984 -33.3829 254° West  Level Estimated
14:49 49.4617 -33.5735 254° West  Level Estimated
14:50 49.4246 -33.7639 253° West  Level Estimated
14:51 49.3872 -33.9540 253° West  Level Estimated
14:52 49.3495 -34.1438 253° West  Level Estimated
14:53 49.3115 -34.3333 253° West  Level Estimated
14:54 49.2732 -34.5225 253° West  Level Estimated
14:55 49.2345 -34.7114 253° West  Level Estimated
14:56 49.1956 -34.9000 253° West  Level Estimated
14:57 49.1563 -35.0883 252° West  Level Estimated
14:58 49.1168 -35.2764 252° West  Level Estimated
14:59 49.0769 -35.4641 252° West  Level Estimated
15:00 49.0368 -35.6515 252° West  Level Estimated
15:01 48.9963 -35.8386 252° West  Level Estimated
15:02 48.9555 -36.0254 252° West  Level Estimated
15:03 48.9145 -36.2119 252° West  Level Estimated
15:04 48.8731 -36.3981 251° West  Level Estimated
15:05 48.8314 -36.5840 251° West  Level Estimated
15:06 48.7895 -36.7696 251° West  Level Estimated
15:07 48.7472 -36.9549 251° West  Level Estimated
15:08 48.7046 -37.1398 251° West  Level Estimated
15:09 48.6618 -37.3245 251° West  Level Estimated
15:10 48.6186 -37.5088 251° West  Level Estimated
15:11 48.5752 -37.6928 250° West  Level Estimated
15:12 48.5315 -37.8765 250° West  Level Estimated
15:13 48.4874 -38.0598 250° West  Level Estimated
15:14 48.4431 -38.2429 250° West  Level Estimated
15:15 48.3985 -38.4256 250° West  Level Estimated
15:16 48.3536 -38.6080 250° West  Level Estimated
15:17 48.3084 -38.7901 250° West  Level Estimated
15:18 48.2630 -38.9719 249° West  Level Estimated
15:19 48.2172 -39.1533 249° West  Level Estimated
15:20 48.1712 -39.3344 249° West  Level Estimated
15:21 48.1248 -39.5152 249° West  Level Estimated
15:22 48.0782 -39.6957 249° West  Level Estimated
15:23 48.0313 -39.8759 249° West  Level Estimated
15:24 47.9841 -40.0557 249° West  Level Estimated
15:25 47.9367 -40.2351 249° West  Level Estimated
15:26 47.8890 -40.4143 248° West  Level Estimated
15:27 47.8410 -40.5931 248° West  Level Estimated
15:28 47.7927 -40.7716 248° West  Level Estimated
15:29 47.7441 -40.9498 248° West  Level Estimated
15:30 47.6953 -41.1276 248° West  Level Estimated
15:31 47.6462 -41.3051 248° West  Level Estimated
15:32 47.5968 -41.4822 248° West  Level Estimated
15:33 47.5471 -41.6590 247° West  Level Estimated
15:34 47.4972 -41.8355 247° West  Level Estimated
15:35 47.4470 -42.0117 247° West  Level Estimated
15:36 47.3965 -42.1875 247° West  Level Estimated
15:37 47.3458 -42.3629 247° West  Level Estimated
15:38 47.2948 -42.5381 247° West  Level Estimated
15:39 47.2435 -42.7129 247° West  Level Estimated
15:40 47.1920 -42.8873 247° West  Level Estimated
15:41 47.1402 -43.0615 246° West  Level Estimated
15:42 47.0881 -43.2352 246° West  Level Estimated
15:43 47.0358 -43.4087 246° West  Level Estimated
15:44 46.9832 -43.5818 246° West  Level Estimated
15:45 46.9303 -43.7546 246° West  Level Estimated
15:46 46.8772 -43.9270 246° West  Level Estimated
15:47 46.8239 -44.0990 246° West  Level Estimated
15:48 46.7702 -44.2708 246° West  Level Estimated
15:49 46.7164 -44.4422 245° Southwest  Level Estimated
15:50 46.6622 -44.6132 245° Southwest  Level Estimated
15:51 46.6078 -44.7839 245° Southwest  Level Estimated
15:52 46.5532 -44.9543 245° Southwest  Level Estimated
15:53 46.4983 -45.1243 245° Southwest  Level Estimated
15:54 46.4432 -45.2940 245° Southwest  Level Estimated
15:55 46.3878 -45.4633 245° Southwest  Level Estimated
15:56 46.3321 -45.6323 245° Southwest  Level Estimated
15:57 46.2762 -45.8009 244° Southwest  Level Estimated
15:58 46.2201 -45.9692 244° Southwest  Level Estimated
15:59 46.1637 -46.1372 244° Southwest  Level Estimated
16:00 46.1071 -46.3048 244° Southwest  Level Estimated
16:01 46.0502 -46.4720 244° Southwest  Level Estimated
16:02 45.9931 -46.6390 244° Southwest  Level Estimated
16:03 45.9357 -46.8055 244° Southwest  Level Estimated
16:04 45.8781 -46.9717 244° Southwest  Level Estimated
16:05 45.8203 -47.1376 243° Southwest  Level Estimated
16:06 45.7622 -47.3032 243° Southwest  Level Estimated
16:07 45.7038 -47.4684 243° Southwest  Level Estimated
16:08 45.6453 -47.6332 243° Southwest  Level Estimated
16:09 45.5865 -47.7977 243° Southwest  Level Estimated
16:10 45.5275 -47.9619 243° Southwest  Level Estimated
16:11 45.4682 -48.1257 243° Southwest  Level Estimated
16:12 45.4087 -48.2892 243° Southwest  Level Estimated
16:13 45.3490 -48.4523 243° Southwest  Level Estimated
16:14 45.2890 -48.6151 242° Southwest  Level Estimated
16:15 45.2288 -48.7775 242° Southwest  Level Estimated
16:16 45.1684 -48.9396 242° Southwest  Level Estimated
16:17 45.1077 -49.1013 242° Southwest  Level Estimated
16:18 45.0468 -49.2627 242° Southwest  Level Estimated
16:19 44.9857 -49.4238 242° Southwest  Level Estimated
16:20 44.9244 -49.5845 242° Southwest  Level Estimated
16:21 44.8628 -49.7449 242° Southwest  Level Estimated
16:21 38.0000 -40.0000 253° West 481 554 36,000  Level New York Oceanic (ODAPS)
16:22 44.8010 -49.9049 241° Southwest  Level Estimated
16:23 44.7390 -50.0646 241° Southwest  Level Estimated
16:24 44.6768 -50.2239 241° Southwest  Level Estimated
16:25 44.6143 -50.3829 241° Southwest  Level Estimated
16:26 44.5517 -50.5416 241° Southwest  Level Estimated
16:27 37.7590 -40.9552 252° West 481 554 36,000  Level FlightAware Transoceanic
16:28 37.7180 -41.1137 252° West 481 554 36,000  Level FlightAware Transoceanic
16:28 37.7333 -41.0167 252° West 482 555 36,000  Level New York Oceanic (ODAPS)
16:29 37.6769 -41.2721 252° West 481 554 36,000  Level FlightAware Transoceanic
16:30 37.6356 -41.4304 252° West 481 554 36,000  Level FlightAware Transoceanic
16:31 37.5940 -41.5884 252° West 481 554 36,000  Level FlightAware Transoceanic
16:32 37.5523 -41.7463 251° West 481 554 36,000  Level FlightAware Transoceanic
16:33 37.5103 -41.9040 251° West 481 554 36,000  Level FlightAware Transoceanic
16:34 37.4825 -41.9750 251° West 482 555 36,000  Level FlightAware Transoceanic
16:35 37.4399 -42.1340 251° West 482 555 36,000  Level FlightAware Transoceanic
16:36 37.3972 -42.2929 251° West 482 555 36,000  Level FlightAware Transoceanic
16:37 37.3542 -42.4517 251° West 482 555 36,000  Level FlightAware Transoceanic
16:38 37.3110 -42.6102 251° West 482 555 36,000  Level FlightAware Transoceanic
16:39 37.2676 -42.7686 251° West 482 555 36,000  Level FlightAware Transoceanic
16:40 37.2240 -42.9268 251° West 482 555 36,000  Level FlightAware Transoceanic
16:41 37.1801 -43.0847 251° West 482 555 36,000  Level FlightAware Transoceanic
16:41 37.1500 -43.2167 251° West 482 555 36,000  Level New York Oceanic (ODAPS)
16:42 37.1361 -43.2425 251° West 482 555 36,000  Level FlightAware Transoceanic
16:43 37.0919 -43.4002 251° West 482 555 36,000  Level FlightAware Transoceanic
16:44 37.0474 -43.5576 250° West 482 555 36,000  Level FlightAware Transoceanic
16:45 37.0028 -43.7149 250° West 482 555 36,000  Level FlightAware Transoceanic
16:46 36.9579 -43.8719 250° West 482 555 36,000  Level FlightAware Transoceanic
16:47 36.9128 -44.0288 250° West 482 555 36,000  Level FlightAware Transoceanic
16:48 36.8797 -44.1634 250° West 482 555 36,000  Level FlightAware Transoceanic
16:49 36.8339 -44.3205 250° West 482 555 36,000  Level FlightAware Transoceanic
16:50 36.7879 -44.4775 250° West 482 555 36,000  Level FlightAware Transoceanic
16:51 36.7417 -44.6342 250° West 482 555 36,000  Level FlightAware Transoceanic
16:52 36.6954 -44.7908 250° West 482 555 36,000  Level FlightAware Transoceanic
16:53 36.6488 -44.9472 250° West 482 555 36,000  Level FlightAware Transoceanic
16:54 36.6020 -45.1034 249° West 482 555 36,000  Level FlightAware Transoceanic
16:55 36.5549 -45.2594 249° West 482 555 36,000  Level FlightAware Transoceanic
16:55 36.5167 -45.3667 249° West 487 560 36,000  Level New York Oceanic (ODAPS)
16:56 36.5077 -45.4152 249° West 482 555 36,000  Level FlightAware Transoceanic
16:57 36.4603 -45.5708 249° West 482 555 36,000  Level FlightAware Transoceanic
16:58 36.4127 -45.7262 249° West 482 555 36,000  Level FlightAware Transoceanic
16:59 36.3649 -45.8815 249° West 482 555 36,000  Level FlightAware Transoceanic
17:00 36.3169 -46.0365 249° West 482 555 36,000  Level FlightAware Transoceanic
17:01 36.2687 -46.1913 249° West 482 555 36,000  Level FlightAware Transoceanic
17:02 36.1788 -46.4636 249° West 487 560 36,000  Level FlightAware Transoceanic
17:03 36.1297 -46.6195 249° West 487 560 36,000  Level FlightAware Transoceanic
17:04 36.0804 -46.7752 249° West 487 560 36,000  Level FlightAware Transoceanic
17:05 36.0310 -46.9307 248° West 487 560 36,000  Level FlightAware Transoceanic
17:06 35.9813 -47.0861 248° West 487 560 36,000  Level FlightAware Transoceanic
17:07 35.9314 -47.2412 248° West 487 560 36,000  Level FlightAware Transoceanic
17:08 35.8813 -47.3961 248° West 487 560 36,000  Level FlightAware Transoceanic
17:09 35.8310 -47.5509 248° West 487 560 36,000  Level FlightAware Transoceanic
17:09 35.8500 -47.5167 248° West 487 560 36,000  Level New York Oceanic (ODAPS)
17:10 35.7805 -47.7054 248° West 487 560 36,000  Level FlightAware Transoceanic
17:11 35.7299 -47.8598 248° West 487 560 36,000  Level FlightAware Transoceanic
17:12 35.6790 -48.0139 248° West 487 560 36,000  Level FlightAware Transoceanic
17:13 35.6279 -48.1679 248° West 487 560 36,000  Level FlightAware Transoceanic
17:14 35.5767 -48.3217 248° West 487 560 36,000  Level FlightAware Transoceanic
17:15 35.5558 -48.3991 247° West 487 560 36,000  Level FlightAware Transoceanic
17:16 35.5062 -48.5456 247° West 487 560 36,000  Level FlightAware Transoceanic
17:17 35.4563 -48.6918 247° West 487 560 36,000  Level FlightAware Transoceanic
17:18 35.4063 -48.8379 247° West 487 560 36,000  Level FlightAware Transoceanic
17:19 35.3562 -48.9838 247° West 487 560 36,000  Level FlightAware Transoceanic
17:20 35.3058 -49.1295 247° West 487 560 36,000  Level FlightAware Transoceanic
17:21 35.2553 -49.2751 247° West 487 560 36,000  Level FlightAware Transoceanic
17:22 35.2046 -49.4204 247° West 487 560 36,000  Level FlightAware Transoceanic
17:23 35.1537 -49.5656 247° West 487 560 36,000  Level FlightAware Transoceanic
17:23 35.1167 -49.6500 248° West 482 555 36,000  Level New York Oceanic (ODAPS)
17:24 35.1026 -49.7106 247° West 487 560 36,000  Level FlightAware Transoceanic
17:25 35.0514 -49.8554 247° West 487 560 36,000  Level FlightAware Transoceanic
17:25 35.0000 -50.0000 259° West 488 562 36,000  Level New York Oceanic (ODAPS)
17:26 35.0000 -50.0000 259° West 487 560 36,000  Level FlightAware Transoceanic
17:27 34.9743 -50.1648 259° West 487 560 36,000  Level FlightAware Transoceanic
17:28 34.9484 -50.3296 259° West 487 560 36,000  Level FlightAware Transoceanic
17:29 34.9222 -50.4942 259° West 482 555 36,000  Level FlightAware Transoceanic
17:30 34.8959 -50.6588 259° West 482 555 36,000  Level FlightAware Transoceanic
17:31 34.8693 -50.8232 259° West 482 555 36,000  Level FlightAware Transoceanic
17:32 34.8184 -51.1335 259° West 488 562 36,000  Level FlightAware Transoceanic
17:33 34.7916 -51.2950 259° West 488 562 36,000  Level FlightAware Transoceanic
17:34 34.7646 -51.4565 258° West 488 562 36,000  Level FlightAware Transoceanic
17:35 34.7374 -51.6178 258° West 488 562 36,000  Level FlightAware Transoceanic
17:36 34.7100 -51.7790 258° West 488 562 36,000  Level FlightAware Transoceanic
17:37 34.6823 -51.9400 258° West 488 562 36,000  Level FlightAware Transoceanic
17:37 34.7000 -51.8667 258° West 490 564 36,000  Level New York Oceanic (ODAPS)
17:38 34.6545 -52.1010 258° West 488 562 36,000  Level FlightAware Transoceanic
17:39 34.6264 -52.2619 258° West 488 562 36,000  Level FlightAware Transoceanic
17:40 34.5981 -52.4227 258° West 488 562 36,000  Level FlightAware Transoceanic
17:41 34.5696 -52.5833 258° West 488 562 36,000  Level FlightAware Transoceanic
17:42 34.5409 -52.7439 258° West 488 562 36,000  Level FlightAware Transoceanic
17:43 34.5281 -52.8399 258° West 490 564 36,000  Level FlightAware Transoceanic
17:44 34.4987 -53.0017 258° West 490 564 36,000  Level FlightAware Transoceanic
17:45 34.4691 -53.1634 257° West 490 564 36,000  Level FlightAware Transoceanic
17:46 34.4393 -53.3250 257° West 490 564 36,000  Level FlightAware Transoceanic
17:47 34.4092 -53.4864 257° West 490 564 36,000  Level FlightAware Transoceanic
17:48 34.3790 -53.6478 257° West 490 564 36,000  Level FlightAware Transoceanic
17:49 34.3485 -53.8090 257° West 490 564 36,000  Level FlightAware Transoceanic
17:50 34.3179 -53.9701 257° West 490 564 36,000  Level FlightAware Transoceanic
17:51 34.2870 -54.1311 257° West 490 564 36,000  Level FlightAware Transoceanic
17:51 34.2833 -54.0833 257° West 491 565 36,000  Level New York Oceanic (ODAPS)
17:52 34.2559 -54.2920 257° West 490 564 36,000  Level FlightAware Transoceanic
17:53 34.2246 -54.4527 257° West 490 564 36,000  Level FlightAware Transoceanic
17:54 34.1931 -54.6134 257° West 490 564 36,000  Level FlightAware Transoceanic
17:55 34.1614 -54.7739 257° West 490 564 36,000  Level FlightAware Transoceanic
17:56 34.1294 -54.9343 256° West 490 564 36,000  Level FlightAware Transoceanic
17:57 34.0946 -55.0546 257° West 491 565 36,000  Level FlightAware Transoceanic
17:58 34.0623 -55.2160 256° West 491 565 36,000  Level FlightAware Transoceanic
17:59 34.0299 -55.3774 256° West 491 565 36,000  Level FlightAware Transoceanic
18:00 33.9973 -55.5386 256° West 491 565 36,000  Level FlightAware Transoceanic
18:01 33.9645 -55.6996 256° West 491 565 36,000  Level FlightAware Transoceanic
18:02 33.9314 -55.8606 256° West 491 565 36,000  Level FlightAware Transoceanic
18:03 33.8982 -56.0214 256° West 491 565 36,000  Level FlightAware Transoceanic
18:04 33.8647 -56.1821 256° West 491 565 36,000  Level FlightAware Transoceanic
18:05 33.8310 -56.3427 256° West 491 565 36,000  Level FlightAware Transoceanic
18:05 33.8500 -56.2833 256° West 489 563 36,000  Level New York Oceanic (ODAPS)
18:06 33.7971 -56.5032 256° West 491 565 36,000  Level FlightAware Transoceanic
18:07 33.7630 -56.6635 256° West 491 565 36,000  Level FlightAware Transoceanic
18:08 33.7287 -56.8237 256° West 491 565 36,000  Level FlightAware Transoceanic
18:09 33.6942 -56.9837 255° West 491 565 36,000  Level FlightAware Transoceanic
18:10 33.6595 -57.1437 255° West 491 565 36,000  Level FlightAware Transoceanic
18:11 33.6390 -57.2599 255° West 489 563 36,000  Level FlightAware Transoceanic
18:12 33.6031 -57.4222 255° West 489 563 36,000  Level FlightAware Transoceanic
18:13 33.5670 -57.5843 255° West 489 563 36,000  Level FlightAware Transoceanic
18:14 33.5306 -57.7463 255° West 489 563 36,000  Level FlightAware Transoceanic
18:15 33.4941 -57.9082 255° West 489 563 36,000  Level FlightAware Transoceanic
18:16 33.4573 -58.0700 255° West 489 563 36,000  Level FlightAware Transoceanic
18:17 33.4203 -58.2315 255° West 489 563 36,000  Level FlightAware Transoceanic
18:18 33.3832 -58.3930 255° West 489 563 36,000  Level FlightAware Transoceanic
18:19 33.3667 -58.4833 254° West 494 568 36,000  Level New York Oceanic (ODAPS)
18:19 33.3458 -58.5544 254° West 489 563 36,000  Level FlightAware Transoceanic
18:20 33.3082 -58.7155 254° West 489 563 36,000  Level FlightAware Transoceanic
18:21 33.2704 -58.8766 254° West 489 563 36,000  Level FlightAware Transoceanic
18:22 33.2324 -59.0375 254° West 489 563 36,000  Level FlightAware Transoceanic
18:23 33.1942 -59.1983 254° West 489 563 36,000  Level FlightAware Transoceanic
18:24 33.1557 -59.3589 254° West 489 563 36,000  Level FlightAware Transoceanic
18:25 33.1243 -59.4959 254° West 494 568 36,000  Level FlightAware Transoceanic
18:26 33.0831 -59.6641 254° West 494 568 36,000  Level FlightAware Transoceanic
18:27 33.0416 -59.8321 254° West 494 568 36,000  Level FlightAware Transoceanic
18:28 33.0000 -60.0000 252° West 494 568 36,000  Level FlightAware Transoceanic
18:28 33.0000 -60.0000 252° West 501 577 36,000  Level New York Oceanic (ODAPS)
18:29 32.9590 -60.1505 252° West 494 568 36,000  Level FlightAware Transoceanic
18:30 32.9177 -60.3008 252° West 494 568 36,000  Level FlightAware Transoceanic
18:31 32.8763 -60.4511 252° West 494 568 36,000  Level FlightAware Transoceanic
18:32 32.8348 -60.6011 252° West 494 568 36,000  Level FlightAware Transoceanic
18:33 32.7930 -60.7511 252° West 494 568 36,000  Level FlightAware Transoceanic
18:33 32.8167 -60.6667 252° West 471 542 36,000  Level New York Oceanic (ODAPS)
18:34 32.7511 -60.9008 252° West 501 577 36,000  Level FlightAware Transoceanic
18:35 32.7090 -61.0505 251° West 501 577 36,000  Level FlightAware Transoceanic
18:36 32.6667 -61.2000 265° West 501 577 36,000  Level FlightAware Transoceanic
18:36 32.6667 -61.2000 265° West 495 570 36,000  Level New York Oceanic (ODAPS)
18:37 32.6551 -61.3588 265° West 501 577 36,000  Level FlightAware Transoceanic
18:38 32.6434 -61.5176 265° West 501 577 36,000  Level FlightAware Transoceanic
18:39 32.6314 -61.6763 265° West 471 542 36,000  Level FlightAware Transoceanic
18:40 32.6193 -61.8350 265° West 471 542 36,000  Level FlightAware Transoceanic
18:41 32.6069 -61.9936 265° West 471 542 36,000  Level FlightAware Transoceanic
18:42 32.5944 -62.1522 265° West 495 570 36,000  Level FlightAware Transoceanic
18:43 32.5816 -62.3108 265° West 495 570 36,000  Level FlightAware Transoceanic
18:44 32.5687 -62.4693 264° West 495 570 36,000  Level FlightAware Transoceanic
18:45 32.5555 -62.6278 264° West 495 570 36,000  Level FlightAware Transoceanic
18:46 32.5422 -62.7862 264° West 495 570 36,000  Level FlightAware Transoceanic
18:46 32.5333 -62.8833 264° West 490 564 36,000  Level New York Oceanic (ODAPS)
18:47 32.5287 -62.9446 264° West 495 570 36,000  Level FlightAware Transoceanic
18:48 32.5149 -63.1029 264° West 495 570 36,000  Level FlightAware Transoceanic
18:49 32.5010 -63.2612 264° West 495 570 36,000  Level FlightAware Transoceanic
18:50 32.4869 -63.4194 264° West 495 570 36,000  Level FlightAware Transoceanic
18:51 32.4725 -63.5776 264° West 495 570 36,000  Level FlightAware Transoceanic
18:52 32.4532 -63.7842 264° West 490 564 36,000  Level FlightAware Transoceanic
18:53 32.4392 -63.9342 264° West 490 564 36,000  Level FlightAware Transoceanic
18:54 32.4251 -64.0841 264° West 490 564 36,000  Level FlightAware Transoceanic
18:55 32.4107 -64.2340 263° West 490 564 36,000  Level FlightAware Transoceanic
18:56 32.3962 -64.3838 263° West 490 564 36,000  Level FlightAware Transoceanic
18:57 32.3815 -64.5336 263° West 490 564 36,000  Level FlightAware Transoceanic
18:57 32.3667 -64.6833 237° Southwest 486 559 36,000  Level New York Oceanic (ODAPS)
18:58 32.3667 -64.6833 237° Southwest 490 564 36,000  Level FlightAware Transoceanic
18:59 32.2916 -64.8182 237° Southwest 490 564 36,000  Level FlightAware Transoceanic
19:00 32.2164 -64.9529 237° Southwest 490 564 36,000  Level FlightAware Transoceanic
19:00 32.1667 -65.0333 237° Southwest 481 554 36,000  Level New York Oceanic (ODAPS)
19:01 32.1411 -65.0873 236° Southwest 490 564 36,000  Level FlightAware Transoceanic
19:02 32.0656 -65.2215 236° Southwest 490 564 36,000  Level FlightAware Transoceanic
19:03 31.9900 -65.3555 236° Southwest 490 564 36,000  Level FlightAware Transoceanic
19:04 31.9142 -65.4893 236° Southwest 486 559 36,000  Level FlightAware Transoceanic
19:05 31.8383 -65.6228 236° Southwest 486 559 36,000  Level FlightAware Transoceanic
19:06 31.7271 -65.8119 236° Southwest 481 554 36,000  Level FlightAware Transoceanic
19:07 31.6534 -65.9409 236° Southwest 481 554 36,000  Level FlightAware Transoceanic
19:07 31.6667 -65.9167 236° Southwest 486 559 36,000  Level New York Oceanic (ODAPS)
19:08 31.5795 -66.0698 236° Southwest 481 554 36,000  Level FlightAware Transoceanic
19:09 31.5055 -66.1984 236° Southwest 481 554 36,000  Level FlightAware Transoceanic
19:10 31.4314 -66.3268 236° Southwest 481 554 36,000  Level FlightAware Transoceanic
19:11 31.3571 -66.4550 236° Southwest 481 554 36,000  Level FlightAware Transoceanic
19:12 31.2828 -66.5831 236° Southwest 481 554 36,000  Level FlightAware Transoceanic
19:13 31.2155 -66.6979 236° Southwest 486 559 36,000  Level FlightAware Transoceanic
19:14 31.1399 -66.8274 236° Southwest 486 559 36,000  Level FlightAware Transoceanic
19:14 31.1333 -66.8500 235° Southwest 438 504 36,000  Level New York Oceanic (ODAPS)
19:14 31.0833 -66.9500 235° Southwest 489 563 36,000  Level New York Oceanic (ODAPS)
19:15 31.0641 -66.9567 236° Southwest 486 559 36,000  Level FlightAware Transoceanic
19:16 30.9882 -67.0858 236° Southwest 486 559 36,000  Level FlightAware Transoceanic
19:17 30.9122 -67.2146 235° Southwest 486 559 36,000  Level FlightAware Transoceanic
19:18 30.8360 -67.3433 235° Southwest 486 559 36,000  Level FlightAware Transoceanic
19:19 30.7598 -67.4717 235° Southwest 486 559 36,000  Level FlightAware Transoceanic
19:20 30.6833 -67.6000 239° Southwest 493 567 36,000  Level New York Oceanic (ODAPS)
19:20 30.6833 -67.6000 239° Southwest 438 504 36,000  Level FlightAware Transoceanic
19:21 30.6099 -67.7417 239° Southwest 489 563 36,000  Level FlightAware Transoceanic
19:22 30.5363 -67.8832 239° Southwest 489 563 36,000  Level FlightAware Transoceanic
19:23 30.4625 -68.0244 239° Southwest 489 563 36,000  Level FlightAware Transoceanic
19:24 30.3887 -68.1655 239° Southwest 489 563 36,000  Level FlightAware Transoceanic
19:25 30.3146 -68.3063 239° Southwest 489 563 36,000  Level FlightAware Transoceanic
19:26 30.2493 -68.4301 239° Southwest 493 567 36,000  Level FlightAware Transoceanic
19:27 30.1765 -68.5677 238° Southwest 493 567 36,000  Level FlightAware Transoceanic
19:28 30.1035 -68.7051 238° Southwest 493 567 36,000  Level FlightAware Transoceanic
19:28 30.1333 -68.7000 238° Southwest 491 565 36,000  Level New York Oceanic (ODAPS)
19:29 30.0304 -68.8423 238° Southwest 493 567 36,000  Level FlightAware Transoceanic
19:30 29.9571 -68.9793 238° Southwest 493 567 36,000  Level FlightAware Transoceanic
19:31 29.8837 -69.1161 238° Southwest 493 567 36,000  Level FlightAware Transoceanic
19:32 29.8101 -69.2528 238° Southwest 493 567 36,000  Level FlightAware Transoceanic
19:33 29.7364 -69.3892 238° Southwest 493 567 36,000  Level FlightAware Transoceanic
19:34 29.6882 -69.5212 238° Southwest 491 565 36,000  Level FlightAware Transoceanic
19:35 29.6135 -69.6574 238° Southwest 491 565 36,000  Level FlightAware Transoceanic
19:36 29.5387 -69.7934 238° Southwest 491 565 36,000  Level FlightAware Transoceanic
19:37 29.4638 -69.9291 238° Southwest 491 565 36,000  Level FlightAware Transoceanic
19:38 29.3887 -70.0647 238° Southwest 491 565 36,000  Level FlightAware Transoceanic
19:39 29.3134 -70.2001 237° Southwest 491 565 36,000  Level FlightAware Transoceanic
19:40 29.2381 -70.3352 237° Southwest 491 565 36,000  Level FlightAware Transoceanic
19:41 29.1626 -70.4702 237° Southwest 491 565 36,000  Level FlightAware Transoceanic
19:42 29.0869 -70.6049 237° Southwest 491 565 36,000  Level FlightAware Transoceanic
19:42 29.1333 -70.5667 237° Southwest 469 540 36,000  Level New York Oceanic (ODAPS)
19:43 29.0111 -70.7395 237° Southwest 491 565 36,000  Level FlightAware Transoceanic
19:44 28.9352 -70.8739 237° Southwest 491 565 36,000  Level FlightAware Transoceanic
19:45 28.8592 -71.0080 237° Southwest 491 565 36,000  Level FlightAware Transoceanic
19:45 28.8833 -71.0000 237° Southwest 495 570 36,000  Level New York Oceanic (ODAPS)
19:46 28.7830 -71.1420 237° Southwest 491 565 36,000  Level FlightAware Transoceanic
19:47 28.7067 -71.2758 237° Southwest 491 565 36,000  Level FlightAware Transoceanic
19:48 28.6831 -71.3518 237° Southwest 469 540 36,000  Level FlightAware Transoceanic
19:49 28.6076 -71.4820 237° Southwest 469 540 36,000  Level FlightAware Transoceanic
19:50 28.5320 -71.6120 236° Southwest 469 540 36,000  Level FlightAware Transoceanic
19:51 28.4365 -71.7723 236° Southwest 495 570 36,000  Level FlightAware Transoceanic
19:52 28.3617 -71.9003 236° Southwest 495 570 36,000  Level FlightAware Transoceanic
19:52 28.3167 -71.9167 237° Southwest 490 564 36,000  Level New York Oceanic (ODAPS)
19:53 28.2866 -72.0282 236° Southwest 495 570 36,000  Level FlightAware Transoceanic
19:54 28.2115 -72.1559 236° Southwest 495 570 36,000  Level FlightAware Transoceanic
19:55 28.1363 -72.2835 236° Southwest 495 570 36,000  Level FlightAware Transoceanic
19:56 28.0609 -72.4108 236° Southwest 495 570 36,000  Level FlightAware Transoceanic
19:56 28.0667 -72.3667 237° Southwest 486 559 36,000  Level New York Oceanic (ODAPS)
19:57 27.9854 -72.5380 236° Southwest 495 570 36,000  Level FlightAware Transoceanic
19:58 27.9098 -72.6650 236° Southwest 495 570 36,000  Level FlightAware Transoceanic
19:59 27.8056 -72.8018 237° Southwest 490 564 36,000  Level FlightAware Transoceanic
20:00 27.7322 -72.9276 237° Southwest 490 564 36,000  Level FlightAware Transoceanic
20:01 27.6586 -73.0532 236° Southwest 490 564 36,000  Level FlightAware Transoceanic
20:02 27.6099 -73.1449 236° Southwest 486 559 36,000  Level FlightAware Transoceanic
20:03 27.5333 -73.2739 236° Southwest 486 559 36,000  Level FlightAware Transoceanic
20:04 27.4567 -73.4028 236° Southwest 486 559 36,000  Level FlightAware Transoceanic
20:05 27.3799 -73.5315 236° Southwest 486 559 36,000  Level FlightAware Transoceanic
20:06 27.3030 -73.6600 236° Southwest 486 559 36,000  Level FlightAware Transoceanic
20:07 27.2259 -73.7884 236° Southwest 486 559 36,000  Level FlightAware Transoceanic
20:08 27.1488 -73.9165 236° Southwest 486 559 36,000  Level FlightAware Transoceanic
20:09 27.0715 -74.0445 236° Southwest 486 559 36,000  Level FlightAware Transoceanic
20:10 26.9942 -74.1724 236° Southwest 486 559 36,000  Level FlightAware Transoceanic
20:10 26.9711 -74.2175 236° Southwest 460 529 36,000  Level Miami Center
20:11 26.9167 -74.3000 237° Southwest 486 559 36,000  Level FlightAware Transoceanic
20:11 26.8856 -74.3475 234° Southwest 460 529 36,000  Level Miami Center
20:12 26.8412 -74.4285 237° Southwest 486 559 36,000  Level FlightAware Transoceanic
20:12 26.8106 -74.4747 237° Southwest 485 558 36,000  Level Miami Center
20:13 26.7656 -74.5567 237° Southwest 486 559 36,000  Level FlightAware Transoceanic
20:13 26.7394 -74.6089 239° Southwest 502 578 36,000  Level Miami Center
20:14 26.6899 -74.6849 236° Southwest 486 559 36,000  Level FlightAware Transoceanic
20:14 26.6847 -74.7169 240° Southwest 502 578 36,000  Level Miami Center
20:15 26.6141 -74.8128 236° Southwest 486 559 36,000  Level FlightAware Transoceanic
20:15 26.6056 -74.8764 241° Southwest 502 578 36,000  Level Miami Center
20:16 26.5383 -75.0075 240° Southwest 496 571 36,000  Level Miami Center
20:17 26.4689 -75.1411 240° Southwest 496 571 36,000  Level Miami Center
20:18 26.4017 -75.2742 241° Southwest 496 571 36,000  Level Miami Center
20:19 26.3383 -75.4050 242° Southwest 491 565 36,000  Level Miami Center
20:20 26.2578 -75.5286 234° Southwest 491 565 36,000  Level Miami Center
20:21 26.1944 -75.6636 242° Southwest 497 572 36,000  Level Miami Center
20:22 26.1200 -75.7894 237° Southwest 497 572 36,000  Level Miami Center
20:23 26.0500 -75.9150 238° Southwest 491 565 36,000  Level Miami Center
20:24 25.9817 -76.0428 239° Southwest 486 559 36,000  Level Miami Center
20:25 25.9114 -76.1725 239° Southwest 491 565 36,000  Level Miami Center
20:26 25.8408 -76.2978 238° Southwest 491 565 36,000  Level Miami Center
20:27 25.7722 -76.4250 239° Southwest 491 565 36,000  Level Miami Center
20:28 25.7036 -76.5542 240° Southwest 491 565 36,000  Level Miami Center
20:29 25.6328 -76.6836 239° Southwest 491 565 36,000  Level Miami Center
20:30 25.5619 -76.8128 239° Southwest 491 565 36,000  Level Miami Center
20:31 25.4931 -76.9369 238° Southwest 491 565 36,000  Level Miami Center
20:32 25.4239 -77.0658 239° Southwest 491 565 36,000  Level Miami Center
20:33 25.3525 -77.1922 238° Southwest 491 565 36,000  Level Miami Center
20:34 25.2833 -77.3208 239° Southwest 491 565 36,000  Level Miami Center
20:35 25.2181 -77.4469 240° Southwest 491 565 36,000  Level Miami Center
20:36 25.1547 -77.5683 240° Southwest 491 565 36,000  Level Miami Center
20:41 24.7530 -78.2660 240° Southwest 479 551 36,000  Level FlightAware
20:42 24.7060 -78.3480 238° Southwest 483 556 36,000  Level FlightAware
20:43 24.6540 -78.4390 238° Southwest 478 550 36,000 -240 Level FlightAware
20:43 24.6060 -78.5250 238° Southwest 477 549 35,700 -540 Descending FlightAware
20:44 24.5510 -78.6210 238° Southwest 477 549 35,300 -540 Descending FlightAware
20:45 24.5050 -78.7010 238° Southwest 482 555 35,000 -240 Descending FlightAware
20:45 24.4630 -78.7760 238° Southwest 482 555 35,000  Level FlightAware
20:47 24.3600 -78.9560 238° Southwest 483 556 35,000  Level FlightAware
20:47 24.3240 -79.0200 238° Southwest 483 556 35,000  Level FlightAware
20:48 24.2750 -79.1050 238° Southwest 483 556 35,000  Level FlightAware
20:49 24.2390 -79.1680 238° Southwest 483 556 35,000  Level FlightAware
20:50 24.1910 -79.2530 238° Southwest 483 556 35,000  Level FlightAware
20:50 24.1540 -79.3170 238° Southwest 483 556 35,000  Level FlightAware
20:51 24.1060 -79.4010 238° Southwest 483 556 35,000  Level FlightAware
20:52 24.0700 -79.4650 238° Southwest 483 556 35,000  Level FlightAware
20:52 24.0220 -79.5500 238° Southwest 483 556 35,000  Level FlightAware
20:53 23.9980 -79.7270 262° West 35,000  Level FlightAware
21:01 23.4503 -80.6216 243° Southwest  Level FlightAware Approximate
21:02 23.3931 -80.7456 243° Southwest  Level FlightAware Approximate
21:03 23.3287 -80.8652 239° Southwest  Level FlightAware Approximate
21:04 23.2628 -80.9839 239° Southwest  Level FlightAware Approximate
21:05 23.1978 -81.1030 241° Southwest  Level FlightAware Approximate
21:06 23.1350 -81.2236 240° Southwest  Level FlightAware Approximate
21:07 23.0721 -81.3440 240° Southwest  Level FlightAware Approximate
21:08 23.0167 -81.4665 270° West  Level FlightAware Approximate
21:09 23.0087 -81.6044 264° West  Level FlightAware Approximate
21:10 23.0000 -81.7423 270° West  Level FlightAware Approximate
21:11 23.0000 -81.8807 270° West  Level FlightAware Approximate
21:12 22.9923 -82.0186 264° West  Level FlightAware Approximate
21:13 22.9833 -82.1565 270° West  Level FlightAware Approximate
21:14 22.9833 -82.2948 270° West  Level FlightAware Approximate
21:15 22.9667 -82.4000 260° West  Level FlightAware Approximate
21:16 22.9891 -82.4091 260° West  Level Estimated
21:17 22.9891 -82.4091 260° West  Level Estimated
21:18 22.9891 -82.4091 260° West  Level Estimated
21:19 22.9891 -82.4091 260° West  Level Estimated
21:20 22.9891 -82.4091 260° West  Level Estimated
21:21 22.9891 -82.4091 260° West  Level Estimated
21:22 22.9891 -82.4091 260° West  Level Estimated
21:23 22.9891 -82.4091 260° West  Level Estimated
21:24 22.9891 -82.4091 260° West  Level Estimated
21:25 22.9891 -82.4091 260° West  Level Estimated
21:26 22.9891 -82.4091 260° West  Level Estimated
21:27 22.9891 -82.4091 260° West  Level Estimated
21:28 22.9891 -82.4091 260° West  Level Estimated
21:29 22.9891 -82.4091 260° West  Level Estimated
21:30 22.9891 -82.4091 260° West  Level Estimated
21:31 22.9891 -82.4091 260° West  Level Estimated
21:32 22.9891 -82.4091 260° West  Level Estimated
21:33 22.9891 -82.4091 260° West  Level Estimated
21:34 22.9891 -82.4091 260° West  Level Estimated
21:35 22.9891 -82.4091 260° West  Level Estimated
21:36 22.9891 -82.4091 260° West  Level Estimated
21:37 22.9891 -82.4091 260° West  Level Estimated
21:38 22.9891 -82.4091 260° West  Level Estimated